createdAt,value
2022-08-26T00:00:50.976Z,96685.34
2022-08-26T00:01:53.973Z,96691.16
2022-08-26T00:02:56.692Z,96688.25
2022-08-26T00:04:01.505Z,96689.81
2022-08-26T00:05:04.096Z,96683.22
2022-08-26T00:06:07.373Z,96688.50
2022-08-26T00:07:10.570Z,96690.91
2022-08-26T00:08:13.218Z,96687.16
2022-08-26T00:09:16.103Z,96686.91
2022-08-26T00:10:18.815Z,96683.22
2022-08-26T00:11:26.673Z,96685.56
2022-08-26T00:12:37.471Z,96693.00
2022-08-26T00:13:40.265Z,96688.22
2022-08-26T00:14:49.956Z,96686.91
2022-08-26T00:15:51.808Z,96689.81
2022-08-26T00:16:53.671Z,96689.81
2022-08-26T00:17:57.140Z,96691.94
2022-08-26T00:18:59.293Z,96681.34
2022-08-26T00:20:01.245Z,96685.84
2022-08-26T00:21:06.236Z,96680.56
2022-08-26T00:22:08.547Z,96689.56
2022-08-26T00:23:10.360Z,96685.59
2022-08-26T00:24:13.489Z,96688.25
2022-08-26T00:25:15.888Z,96693.03
2022-08-26T00:26:19.169Z,96680.56
2022-08-26T00:27:22.659Z,96683.47
2022-08-26T00:28:24.499Z,96684.00
2022-08-26T00:29:26.336Z,96684.00
2022-08-26T00:30:29.362Z,96679.75
2022-08-26T00:31:32.707Z,96683.47
2022-08-26T00:32:34.965Z,96684.00
2022-08-26T00:33:39.963Z,96681.34
2022-08-26T00:34:41.948Z,96685.84
2022-08-26T00:35:43.905Z,96687.16
2022-08-26T00:36:51.745Z,96689.03
2022-08-26T00:37:54.043Z,96693.00
2022-08-26T00:38:56.582Z,96693.00
2022-08-26T00:40:00.787Z,96694.06
2022-08-26T00:41:06.909Z,96693.28
2022-08-26T00:42:08.740Z,96695.13
2022-08-26T00:43:10.630Z,96704.66
2022-08-26T00:44:13.051Z,96701.50
2022-08-26T00:45:16.040Z,96692.50
2022-08-26T00:46:21.964Z,96693.84
2022-08-26T00:47:31.018Z,96689.84
2022-08-26T00:48:34.408Z,96691.44
2022-08-26T00:49:39.021Z,96693.56
2022-08-26T00:50:43.076Z,96697.25
2022-08-26T00:51:49.867Z,96694.91
2022-08-26T00:52:52.615Z,96689.09
2022-08-26T00:53:57.593Z,96685.88
2022-08-26T00:55:02.821Z,96690.13
2022-08-26T00:56:08.380Z,96695.44
2022-08-26T00:57:16.512Z,96688.81
2022-08-26T00:58:18.545Z,96690.38
2022-08-26T00:59:20.943Z,96693.03
2022-08-26T01:00:25.186Z,96694.09
2022-08-26T01:01:28.618Z,96689.88
2022-08-26T01:02:32.583Z,96684.59
2022-08-26T01:03:34.965Z,96685.91
2022-08-26T01:04:37.958Z,96691.72
2022-08-26T01:05:41.330Z,96685.63
2022-08-26T01:06:44.425Z,96690.41
2022-08-26T01:07:46.503Z,96693.59
2022-08-26T01:08:48.541Z,96685.66
2022-08-26T01:09:50.458Z,96689.88
2022-08-26T01:10:54.930Z,96688.03
2022-08-26T01:11:59.119Z,96688.56
2022-08-26T01:13:03.482Z,96684.03
2022-08-26T01:14:06.788Z,96687.75
2022-08-26T01:15:10.736Z,96689.63
2022-08-26T01:16:14.653Z,96685.13
2022-08-26T01:17:16.973Z,96684.84
2022-08-26T01:18:18.896Z,96694.91
2022-08-26T01:19:23.916Z,96685.38
2022-08-26T01:20:38.790Z,96686.72
2022-08-26T01:21:44.188Z,96685.63
2022-08-26T01:23:01.653Z,96688.81
2022-08-26T01:24:05.711Z,96686.16
2022-08-26T01:25:07.678Z,96684.31
2022-08-26T01:26:19.412Z,96688.56
2022-08-26T01:27:22.239Z,96685.13
2022-08-26T01:28:27.441Z,96682.47
2022-08-26T01:29:30.367Z,96686.69
2022-08-26T01:30:33.428Z,96684.31
2022-08-26T01:31:39.067Z,96684.59
2022-08-26T01:32:41.976Z,96683.00
2022-08-26T01:33:48.505Z,96683.00
2022-08-26T01:34:52.039Z,96682.72
2022-08-26T01:35:53.843Z,96684.84
2022-08-26T01:37:15.924Z,96680.34
2022-08-26T01:38:18.847Z,96693.59
2022-08-26T01:39:20.855Z,96679.56
2022-08-26T01:40:26.736Z,96684.06
2022-08-26T01:41:29.313Z,96683.25
2022-08-26T01:42:31.721Z,96683.00
2022-08-26T01:43:34.624Z,96678.47
2022-08-26T01:44:39.853Z,96679.03
2022-08-26T01:45:42.556Z,96681.69
2022-08-26T01:46:47.251Z,96684.84
2022-08-26T01:47:56.814Z,96678.22
2022-08-26T01:49:01.632Z,96677.44
2022-08-26T01:50:05.441Z,96681.16
2022-08-26T01:51:09.919Z,96671.63
2022-08-26T01:52:14.548Z,96677.72
2022-08-26T01:53:18.898Z,96676.66
2022-08-26T01:54:23.992Z,96681.69
2022-08-26T01:55:32.402Z,96672.97
2022-08-26T01:56:36.742Z,96680.09
2022-08-26T01:57:38.586Z,96678.50
2022-08-26T01:58:43.779Z,96685.69
2022-08-26T01:59:46.967Z,96683.03
2022-08-26T02:00:49.279Z,96671.91
2022-08-26T02:01:53.244Z,96672.97
2022-08-26T02:03:17.088Z,96673.75
2022-08-26T02:04:39.764Z,96669.25
2022-08-26T02:05:41.995Z,96674.53
2022-08-26T02:06:45.589Z,96670.31
2022-08-26T02:07:48.486Z,96675.63
2022-08-26T02:08:54.607Z,96670.31
2022-08-26T02:09:57.086Z,96675.59
2022-08-26T02:10:59.081Z,96675.06
2022-08-26T02:12:01.808Z,96670.03
2022-08-26T02:13:04.385Z,96670.56
2022-08-26T02:14:10.247Z,96668.97
2022-08-26T02:15:12.825Z,96670.03
2022-08-26T02:16:16.648Z,96682.47
2022-08-26T02:17:21.164Z,96666.31
2022-08-26T02:18:23.493Z,96671.34
2022-08-26T02:19:31.463Z,96668.19
2022-08-26T02:20:33.716Z,96671.59
2022-08-26T02:21:36.129Z,96677.16
2022-08-26T02:22:38.941Z,96672.94
2022-08-26T02:23:43.072Z,96672.94
2022-08-26T02:24:52.937Z,96663.94
2022-08-26T02:26:05.049Z,96665.53
2022-08-26T02:27:06.835Z,96662.88
2022-08-26T02:28:09.905Z,96669.75
2022-08-26T02:29:18.298Z,96674.00
2022-08-26T02:30:32.379Z,96673.22
2022-08-26T02:31:34.153Z,96661.81
2022-08-26T02:32:36.835Z,96666.31
2022-08-26T02:33:43.111Z,96669.22
2022-08-26T02:34:46.179Z,96668.69
2022-08-26T02:35:48.455Z,96667.13
2022-08-26T02:36:50.873Z,96675.06
2022-08-26T02:37:53.518Z,96662.34
2022-08-26T02:38:55.335Z,96663.94
2022-08-26T02:39:57.620Z,96668.19
2022-08-26T02:40:59.619Z,96667.91
2022-08-26T02:42:01.661Z,96669.22
2022-08-26T02:43:04.071Z,96671.34
2022-08-26T02:44:10.561Z,96666.03
2022-08-26T02:45:13.116Z,96675.31
2022-08-26T02:46:27.711Z,96673.47
2022-08-26T02:47:32.583Z,96675.56
2022-08-26T02:48:34.608Z,96679.28
2022-08-26T02:49:37.940Z,96673.72
2022-08-26T02:50:40.457Z,96676.13
2022-08-26T02:51:44.484Z,96675.34
2022-08-26T02:52:46.661Z,96678.75
2022-08-26T02:53:48.553Z,96675.06
2022-08-26T02:54:50.463Z,96672.94
2022-08-26T02:55:52.655Z,96681.13
2022-08-26T02:56:55.088Z,96685.13
2022-08-26T02:57:56.889Z,96680.88
2022-08-26T02:58:58.721Z,96678.75
2022-08-26T03:00:01.866Z,96686.16
2022-08-26T03:01:05.402Z,96673.97
2022-08-26T03:02:11.246Z,96680.34
2022-08-26T03:03:13.393Z,96677.72
2022-08-26T03:04:15.484Z,96667.63
2022-08-26T03:05:18.192Z,96675.56
2022-08-26T03:06:20.346Z,96680.34
2022-08-26T03:07:22.124Z,96672.38
2022-08-26T03:08:24.273Z,96678.47
2022-08-26T03:09:27.196Z,96676.63
2022-08-26T03:10:29.590Z,96675.56
2022-08-26T03:11:33.130Z,96671.88
2022-08-26T03:12:35.641Z,96672.41
2022-08-26T03:13:38.042Z,96679.28
2022-08-26T03:14:40.448Z,96684.31
2022-08-26T03:15:42.322Z,96671.63
2022-08-26T03:16:44.770Z,96671.88
2022-08-26T03:17:50.563Z,96668.97
2022-08-26T03:18:52.628Z,96669.75
2022-08-26T03:19:54.764Z,96676.63
2022-08-26T03:20:59.888Z,96668.97
2022-08-26T03:22:04.265Z,96672.41
2022-08-26T03:23:06.946Z,96674.81
2022-08-26T03:24:10.253Z,96676.38
2022-08-26T03:25:13.632Z,96673.72
2022-08-26T03:26:17.810Z,96675.34
2022-08-26T03:27:19.889Z,96670.03
2022-08-26T03:28:22.577Z,96679.81
2022-08-26T03:29:43.513Z,96676.63
2022-08-26T03:30:45.758Z,96672.41
2022-08-26T03:31:47.747Z,96677.69
2022-08-26T03:32:49.747Z,96673.97
2022-08-26T03:33:51.898Z,96671.34
2022-08-26T03:34:54.060Z,96678.47
2022-08-26T03:35:55.931Z,96674.78
2022-08-26T03:36:58.888Z,96676.63
2022-08-26T03:38:01.167Z,96674.53
2022-08-26T03:39:03.784Z,96678.47
2022-08-26T03:40:08.337Z,96671.59
2022-08-26T03:41:12.041Z,96674.22
2022-08-26T03:42:15.102Z,96672.38
2022-08-26T03:43:17.779Z,96671.34
2022-08-26T03:44:19.995Z,96670.00
2022-08-26T03:45:22.185Z,96669.22
2022-08-26T03:46:24.459Z,96666.56
2022-08-26T03:47:28.627Z,96670.53
2022-08-26T03:48:30.459Z,96670.81
2022-08-26T03:49:32.336Z,96671.06
2022-08-26T03:50:35.934Z,96667.88
2022-08-26T03:51:39.034Z,96668.94
2022-08-26T03:52:43.876Z,96670.81
2022-08-26T03:53:46.409Z,96673.16
2022-08-26T03:54:48.343Z,96671.59
2022-08-26T03:55:51.757Z,96669.47
2022-08-26T03:56:54.244Z,96672.66
2022-08-26T03:57:56.065Z,96671.34
2022-08-26T03:58:57.866Z,96677.69
2022-08-26T04:00:00.753Z,96672.63
2022-08-26T04:01:02.570Z,96672.38
2022-08-26T04:02:11.358Z,96674.25
2022-08-26T04:03:33.550Z,96677.69
2022-08-26T04:04:35.707Z,96677.16
2022-08-26T04:05:37.991Z,96673.44
2022-08-26T04:06:44.800Z,96678.19
2022-08-26T04:07:47.343Z,96682.44
2022-08-26T04:08:50.752Z,96676.09
2022-08-26T04:09:59.041Z,96672.94
2022-08-26T04:11:01.520Z,96676.88
2022-08-26T04:12:04.186Z,96686.16
2022-08-26T04:13:06.764Z,96683.75
2022-08-26T04:14:10.856Z,96682.19
2022-08-26T04:15:14.382Z,96677.69
2022-08-26T04:16:17.535Z,96681.09
2022-08-26T04:17:19.736Z,96678.22
2022-08-26T04:18:31.461Z,96677.16
2022-08-26T04:19:39.072Z,96679.78
2022-08-26T04:20:40.999Z,96686.13
2022-08-26T04:21:42.934Z,96680.56
2022-08-26T04:22:45.512Z,96672.09
2022-08-26T04:23:48.095Z,96675.03
2022-08-26T04:24:49.973Z,96679.78
2022-08-26T04:25:51.950Z,96682.94
2022-08-26T04:26:54.100Z,96678.72
2022-08-26T04:27:55.945Z,96680.59
2022-08-26T04:28:59.247Z,96684.00
2022-08-26T04:30:01.294Z,96686.91
2022-08-26T04:31:03.297Z,96680.06
2022-08-26T04:32:05.306Z,96683.75
2022-08-26T04:33:12.905Z,96681.09
2022-08-26T04:34:15.253Z,96679.25
2022-08-26T04:35:18.077Z,96678.19
2022-08-26T04:36:20.331Z,96675.81
2022-08-26T04:37:22.645Z,96677.91
2022-08-26T04:38:24.631Z,96675.56
2022-08-26T04:39:27.748Z,96672.91
2022-08-26T04:40:29.822Z,96676.09
2022-08-26T04:41:31.800Z,96675.28
2022-08-26T04:42:33.610Z,96677.13
2022-08-26T04:43:37.578Z,96670.81
2022-08-26T04:44:40.086Z,96677.91
2022-08-26T04:45:42.128Z,96672.63
2022-08-26T04:46:44.196Z,96673.97
2022-08-26T04:47:47.033Z,96674.22
2022-08-26T04:48:51.301Z,96670.81
2022-08-26T04:49:58.044Z,96674.47
2022-08-26T04:51:00.262Z,96666.56
2022-08-26T04:52:02.240Z,96663.41
2022-08-26T04:53:04.970Z,96670.50
2022-08-26T04:54:08.897Z,96666.81
2022-08-26T04:55:10.866Z,96666.56
2022-08-26T04:56:13.307Z,96663.38
2022-08-26T04:57:15.355Z,96669.72
2022-08-26T04:58:19.278Z,96660.19
2022-08-26T04:59:21.203Z,96669.47
2022-08-26T05:00:23.662Z,96659.38
2022-08-26T05:01:28.676Z,96667.84
2022-08-26T05:02:31.834Z,96665.47
2022-08-26T05:03:35.521Z,96671.84
2022-08-26T05:04:37.925Z,96668.91
2022-08-26T05:05:43.821Z,96666.03
2022-08-26T05:06:45.697Z,96668.91
2022-08-26T05:07:47.537Z,96674.75
2022-08-26T05:08:51.782Z,96672.09
2022-08-26T05:09:55.155Z,96675.53
2022-08-26T05:10:56.996Z,96679.22
2022-08-26T05:11:58.773Z,96677.38
2022-08-26T05:13:00.868Z,96684.50
2022-08-26T05:14:02.673Z,96675.53
2022-08-26T05:15:04.698Z,96685.06
2022-08-26T05:16:08.848Z,96682.41
2022-08-26T05:17:15.096Z,96677.91
2022-08-26T05:18:19.994Z,96671.28
2022-08-26T05:19:22.306Z,96676.03
2022-08-26T05:20:25.791Z,96670.50
2022-08-26T05:21:29.316Z,96674.22
2022-08-26T05:22:31.346Z,96667.63
2022-08-26T05:23:35.387Z,96670.50
2022-08-26T05:24:37.430Z,96671.31
2022-08-26T05:25:42.190Z,96670.53
2022-08-26T05:26:44.876Z,96672.63
2022-08-26T05:27:47.242Z,96671.84
2022-08-26T05:28:49.518Z,96666.28
2022-08-26T05:29:54.434Z,96667.34
2022-08-26T05:30:57.162Z,96673.44
2022-08-26T05:32:00.962Z,96674.75
2022-08-26T05:33:02.967Z,96668.69
2022-08-26T05:34:05.198Z,96672.09
2022-08-26T05:35:08.762Z,96672.38
2022-08-26T05:36:12.638Z,96672.94
2022-08-26T05:37:15.843Z,96677.69
2022-08-26T05:38:20.109Z,96674.25
2022-08-26T05:39:23.806Z,96675.56
2022-08-26T05:40:25.651Z,96675.28
2022-08-26T05:41:34.355Z,96675.03
2022-08-26T05:42:38.589Z,96667.09
2022-08-26T05:43:40.394Z,96671.88
2022-08-26T05:44:55.627Z,96668.94
2022-08-26T05:46:05.927Z,96658.63
2022-08-26T05:47:07.916Z,96674.25
2022-08-26T05:48:11.368Z,96671.34
2022-08-26T05:49:14.381Z,96671.88
2022-08-26T05:50:22.054Z,96672.66
2022-08-26T05:51:26.087Z,96669.50
2022-08-26T05:52:28.217Z,96674.50
2022-08-26T05:53:30.026Z,96676.91
2022-08-26T05:54:34.129Z,96674.50
2022-08-26T05:55:41.543Z,96673.72
2022-08-26T05:56:43.450Z,96671.34
2022-08-26T05:57:48.168Z,96670.28
2022-08-26T05:58:50.018Z,96678.22
2022-08-26T05:59:52.228Z,96673.47
2022-08-26T06:00:59.087Z,96666.06
2022-08-26T06:02:02.408Z,96674.00
2022-08-26T06:03:04.419Z,96670.03
2022-08-26T06:04:07.116Z,96672.94
2022-08-26T06:05:09.067Z,96667.13
2022-08-26T06:06:15.113Z,96666.88
2022-08-26T06:07:41.914Z,96667.66
2022-08-26T06:08:44.451Z,96667.09
2022-08-26T06:09:46.342Z,96667.91
2022-08-26T06:10:49.550Z,96660.50
2022-08-26T06:11:52.738Z,96669.75
2022-08-26T06:12:55.530Z,96671.34
2022-08-26T06:14:03.139Z,96671.34
2022-08-26T06:15:05.821Z,96671.34
2022-08-26T06:16:09.245Z,96674.50
2022-08-26T06:17:11.123Z,96667.91
2022-08-26T06:18:16.269Z,96679.28
2022-08-26T06:19:18.312Z,96675.34
2022-08-26T06:20:20.115Z,96668.44
2022-08-26T06:21:25.618Z,96677.16
2022-08-26T06:22:46.052Z,96671.34
2022-08-26T06:24:07.302Z,96673.47
2022-08-26T06:25:28.207Z,96674.53
2022-08-26T06:26:31.325Z,96675.84
2022-08-26T06:27:33.144Z,96681.97
2022-08-26T06:28:35.244Z,96677.19
2022-08-26T06:29:39.176Z,96669.78
2022-08-26T06:30:41.253Z,96677.19
2022-08-26T06:31:43.183Z,96678.78
2022-08-26T06:32:46.010Z,96678.78
2022-08-26T06:33:47.936Z,96666.59
2022-08-26T06:34:51.397Z,96673.75
2022-08-26T06:35:53.897Z,96668.19
2022-08-26T06:36:58.874Z,96674.81
2022-08-26T06:38:00.690Z,96667.38
2022-08-26T06:39:04.789Z,96673.50
2022-08-26T06:40:07.174Z,96673.75
2022-08-26T06:41:10.794Z,96669.25
2022-08-26T06:42:12.833Z,96665.53
2022-08-26T06:43:24.190Z,96667.66
2022-08-26T06:44:26.107Z,96664.75
2022-08-26T06:45:28.155Z,96663.69
2022-08-26T06:46:30.715Z,96670.84
2022-08-26T06:47:32.917Z,96665.78
2022-08-26T06:48:36.042Z,96667.66
2022-08-26T06:49:37.878Z,96668.69
2022-08-26T06:50:42.247Z,96672.41
2022-08-26T06:51:44.103Z,96666.56
2022-08-26T06:52:45.932Z,96666.03
2022-08-26T06:53:49.982Z,96663.63
2022-08-26T06:54:51.793Z,96672.34
2022-08-26T06:55:54.923Z,96664.13
2022-08-26T06:56:57.984Z,96662.00
2022-08-26T06:57:59.989Z,96666.50
2022-08-26T06:59:01.985Z,96657.75
2022-08-26T07:00:12.797Z,96667.00
2022-08-26T07:01:26.152Z,96663.84
2022-08-26T07:02:28.607Z,96659.56
2022-08-26T07:03:30.977Z,96668.28
2022-08-26T07:04:41.595Z,96659.00
2022-08-26T07:05:44.395Z,96660.06
2022-08-26T07:06:53.226Z,96665.59
2022-08-26T07:07:56.805Z,96659.75
2022-08-26T07:09:03.500Z,96656.63
2022-08-26T07:10:06.111Z,96660.31
2022-08-26T07:11:08.934Z,96661.09
2022-08-26T07:12:10.859Z,96653.09
2022-08-26T07:13:12.823Z,96650.97
2022-08-26T07:14:14.718Z,96649.06
2022-08-26T07:15:16.573Z,96653.03
2022-08-26T07:16:18.755Z,96645.59
2022-08-26T07:17:20.673Z,96648.22
2022-08-26T07:18:22.488Z,96643.19
2022-08-26T07:19:30.862Z,96641.28
2022-08-26T07:20:36.243Z,96648.94
2022-08-26T07:21:38.422Z,96641.44
2022-08-26T07:22:40.450Z,96649.09
2022-08-26T07:23:45.452Z,96648.28
2022-08-26T07:24:48.780Z,96645.56
2022-08-26T07:25:50.650Z,96648.47
2022-08-26T07:26:52.558Z,96648.97
2022-08-26T07:27:54.632Z,96642.03
2022-08-26T07:28:57.022Z,96647.09
2022-08-26T07:29:59.253Z,96646.25
2022-08-26T07:31:10.868Z,96646.75
2022-08-26T07:32:15.866Z,96643.50
2022-08-26T07:33:19.700Z,96644.53
2022-08-26T07:34:23.620Z,96646.63
2022-08-26T07:35:26.710Z,96641.84
2022-08-26T07:36:29.629Z,96648.44
2022-08-26T07:37:35.501Z,96643.13
2022-08-26T07:38:41.531Z,96641.78
2022-08-26T07:39:44.698Z,96635.69
2022-08-26T07:40:47.721Z,96645.72
2022-08-26T07:41:49.569Z,96642.53
2022-08-26T07:42:51.362Z,96644.31
2022-08-26T07:43:54.802Z,96644.81
2022-08-26T07:44:56.624Z,96634.63
2022-08-26T07:45:59.407Z,96646.50
2022-08-26T07:47:01.243Z,96641.16
2022-08-26T07:48:04.022Z,96636.84
2022-08-26T07:49:06.285Z,96633.59
2022-08-26T07:50:09.314Z,96638.59
2022-08-26T07:51:11.471Z,96639.09
2022-08-26T07:52:13.714Z,96636.41
2022-08-26T07:53:15.918Z,96633.97
2022-08-26T07:54:20.274Z,96639.53
2022-08-26T07:55:29.450Z,96631.25
2022-08-26T07:56:31.237Z,96637.28
2022-08-26T07:57:33.852Z,96626.09
2022-08-26T07:58:36.724Z,96633.22
2022-08-26T07:59:38.512Z,96635.00
2022-08-26T08:00:40.669Z,96634.19
2022-08-26T08:01:44.637Z,96631.44
2022-08-26T08:02:47.080Z,96637.47
2022-08-26T08:03:51.876Z,96627.06
2022-08-26T08:04:54.811Z,96627.47
2022-08-26T08:05:56.928Z,96623.94
2022-08-26T08:06:59.095Z,96626.78
2022-08-26T08:08:26.929Z,96623.75
2022-08-26T08:09:24.049Z,96629.22
2022-08-26T08:10:27.030Z,96619.78
2022-08-26T08:11:29.780Z,96625.03
2022-08-26T08:12:32.283Z,96626.25
2022-08-26T08:13:38.007Z,96624.28
2022-08-26T08:14:40.372Z,96626.59
2022-08-26T08:15:43.641Z,96621.75
2022-08-26T08:16:45.904Z,96620.38
2022-08-26T08:17:50.524Z,96617.72
2022-08-26T08:18:53.801Z,96618.72
2022-08-26T08:19:55.628Z,96614.38
2022-08-26T08:21:10.925Z,96616.97
2022-08-26T08:22:19.878Z,96615.78
2022-08-26T08:23:23.538Z,96614.16
2022-08-26T08:24:25.937Z,96617.31
2022-08-26T08:25:27.920Z,96615.63
2022-08-26T08:26:29.839Z,96612.38
2022-08-26T08:27:33.912Z,96615.81
2022-08-26T08:28:36.794Z,96613.97
2022-08-26T08:29:38.591Z,96617.91
2022-08-26T08:30:41.252Z,96623.44
2022-08-26T08:31:56.640Z,96619.09
2022-08-26T08:33:00.106Z,96618.50
2022-08-26T08:34:02.183Z,96612.88
2022-08-26T08:35:11.078Z,96617.31
2022-08-26T08:36:18.560Z,96627.28
2022-08-26T08:37:23.323Z,96622.66
2022-08-26T08:38:25.688Z,96618.59
2022-08-26T08:39:28.281Z,96620.38
2022-08-26T08:40:30.161Z,96625.94
2022-08-26T08:41:37.941Z,96617.59
2022-08-26T08:42:45.926Z,96626.09
2022-08-26T08:43:49.297Z,96617.03
2022-08-26T08:44:52.973Z,96616.13
2022-08-26T08:45:57.931Z,96618.00
2022-08-26T08:47:04.183Z,96618.50
2022-08-26T08:48:22.297Z,96618.38
2022-08-26T08:49:31.243Z,96616.91
2022-08-26T08:50:50.553Z,96614.25
2022-08-26T08:52:18.779Z,96613.66
2022-08-26T08:53:26.555Z,96607.72
2022-08-26T08:54:30.733Z,96609.81
2022-08-26T08:55:41.582Z,96610.28
2022-08-26T08:56:53.382Z,96607.81
2022-08-26T08:58:08.103Z,96609.88
2022-08-26T08:59:24.338Z,96603.34
2022-08-26T09:00:30.291Z,96608.88
2022-08-26T09:01:47.824Z,96610.63
2022-08-26T09:02:58.558Z,96607.66
2022-08-26T09:04:13.358Z,96609.41
2022-08-26T09:05:22.020Z,96599.72
2022-08-26T09:06:25.827Z,96606.34
2022-08-26T09:07:48.400Z,96602.28
2022-08-26T09:08:51.010Z,96598.69
2022-08-26T09:10:19.196Z,96605.63
2022-08-26T09:11:21.277Z,96601.06
2022-08-26T09:12:29.835Z,96610.34
2022-08-26T09:13:32.023Z,96598.25
2022-08-26T09:14:33.874Z,96598.44
2022-08-26T09:15:47.745Z,96599.44
2022-08-26T09:16:57.616Z,96604.69
2022-08-26T09:18:24.337Z,96599.19
2022-08-26T09:19:31.346Z,96599.09
2022-08-26T09:20:59.760Z,96602.72
2022-08-26T09:22:05.746Z,96597.25
2022-08-26T09:23:11.537Z,96597.91
2022-08-26T09:24:13.926Z,96601.25
2022-08-26T09:25:16.299Z,96592.00
2022-08-26T09:26:21.449Z,96592.19
2022-08-26T09:27:43.036Z,96593.16
2022-08-26T09:28:49.687Z,96585.31
2022-08-26T09:29:51.914Z,96589.25
2022-08-26T09:31:01.525Z,96588.31
2022-08-26T09:32:20.270Z,96590.84
2022-08-26T09:33:27.597Z,96595.31
2022-08-26T09:34:29.423Z,96593.88
2022-08-26T09:35:34.191Z,96593.75
2022-08-26T09:36:39.477Z,96587.47
2022-08-26T09:38:47.199Z,96594.44
2022-08-26T09:39:49.047Z,96588.44
2022-08-26T09:40:59.279Z,96591.59
2022-08-26T09:42:03.273Z,96585.34
2022-08-26T09:43:16.159Z,96584.28
2022-08-26T09:44:24.856Z,96586.00
2022-08-26T09:45:29.394Z,96586.00
2022-08-26T09:46:32.232Z,96587.72
2022-08-26T09:47:39.458Z,96586.19
2022-08-26T09:48:43.266Z,96586.66
2022-08-26T09:49:46.315Z,96588.41
2022-08-26T09:50:51.848Z,96587.31
2022-08-26T09:52:15.739Z,96587.59
2022-08-26T09:53:21.038Z,96584.19
2022-08-26T09:54:30.471Z,96589.06
2022-08-26T09:55:35.402Z,96585.59
2022-08-26T09:56:42.195Z,96585.44
2022-08-26T09:57:46.839Z,96584.34
2022-08-26T09:58:48.704Z,96582.78
2022-08-26T09:59:50.842Z,96578.50
2022-08-26T10:00:55.717Z,96584.16
2022-08-26T10:02:13.573Z,96575.94
2022-08-26T10:03:26.334Z,96580.09
2022-08-26T10:04:28.286Z,96580.22
2022-08-26T10:05:37.769Z,96583.53
2022-08-26T10:06:43.302Z,96575.00
2022-08-26T10:07:47.513Z,96583.34
2022-08-26T10:08:51.557Z,96568.19
2022-08-26T10:09:54.878Z,96576.06
2022-08-26T10:10:59.264Z,96582.50
2022-08-26T10:12:04.527Z,96566.56
2022-08-26T10:13:09.831Z,96573.00
2022-08-26T10:14:25.099Z,96570.13
2022-08-26T10:15:28.321Z,96574.13
2022-08-26T10:16:36.388Z,96576.94
2022-08-26T10:17:40.816Z,96572.97
2022-08-26T10:18:45.541Z,96572.47
2022-08-26T10:19:57.125Z,96576.53
2022-08-26T10:21:21.124Z,96568.28
2022-08-26T10:22:23.490Z,96562.41
2022-08-26T10:23:27.703Z,96573.63
2022-08-26T10:24:38.058Z,96574.22
2022-08-26T10:25:46.991Z,96568.34
2022-08-26T10:27:01.322Z,96569.56
2022-08-26T10:28:03.065Z,96565.59
2022-08-26T10:29:16.304Z,96567.63
2022-08-26T10:30:20.260Z,96566.03
2022-08-26T10:31:30.427Z,96559.13
2022-08-26T10:32:44.728Z,96559.13
2022-08-26T10:33:47.167Z,96565.69
2022-08-26T10:34:49.008Z,96557.44
2022-08-26T10:35:56.954Z,96549.97
2022-08-26T10:37:15.041Z,96555.13
2022-08-26T10:38:21.836Z,96553.50
2022-08-26T10:39:30.468Z,96553.63
2022-08-26T10:40:32.400Z,96552.19
2022-08-26T10:41:39.894Z,96551.09
2022-08-26T10:42:45.023Z,96553.97
2022-08-26T10:43:59.238Z,96548.91
2022-08-26T10:45:11.999Z,96551.53
2022-08-26T10:46:20.699Z,96539.56
2022-08-26T10:47:26.532Z,96538.72
2022-08-26T10:48:35.489Z,96541.22
2022-08-26T10:49:38.563Z,96545.84
2022-08-26T10:50:43.464Z,96539.81
2022-08-26T10:51:50.181Z,96542.16
2022-08-26T10:53:08.722Z,96539.06
2022-08-26T10:54:13.422Z,96536.00
2022-08-26T10:55:20.149Z,96524.31
2022-08-26T10:56:24.802Z,96527.59
2022-08-26T10:57:40.467Z,96531.03
2022-08-26T10:58:42.529Z,96535.63
2022-08-26T10:59:51.836Z,96527.56
2022-08-26T11:01:17.167Z,96520.41
2022-08-26T11:02:31.734Z,96532.44
2022-08-26T11:03:52.109Z,96528.56
2022-08-26T11:04:56.460Z,96531.19
2022-08-26T11:06:16.848Z,96526.50
2022-08-26T11:07:31.885Z,96522.16
2022-08-26T11:08:33.809Z,96526.63
2022-08-26T11:09:46.509Z,96528.75
2022-08-26T11:10:48.218Z,96518.59
2022-08-26T11:11:51.018Z,96529.56
2022-08-26T11:12:56.023Z,96524.88
2022-08-26T11:13:59.489Z,96525.13
2022-08-26T11:15:01.550Z,96526.16
2022-08-26T11:16:08.524Z,96521.28
2022-08-26T11:17:11.909Z,96522.31
2022-08-26T11:18:33.599Z,96529.91
2022-08-26T11:19:56.841Z,96526.13
2022-08-26T11:20:57.706Z,96517.00
2022-08-26T11:22:06.367Z,96520.25
2022-08-26T11:23:23.746Z,96519.50
2022-08-26T11:24:43.600Z,96510.72
2022-08-26T11:26:06.542Z,96509.78
2022-08-26T11:27:26.251Z,96516.72
2022-08-26T11:28:35.762Z,96519.25
2022-08-26T11:29:56.257Z,96508.59
2022-08-26T11:30:58.462Z,96508.59
2022-08-26T11:32:00.343Z,96501.84
2022-08-26T11:33:05.790Z,96503.16
2022-08-26T11:34:10.806Z,96501.13
2022-08-26T11:35:32.986Z,96498.88
2022-08-26T11:36:37.774Z,96498.28
2022-08-26T11:37:41.149Z,96492.53
2022-08-26T11:38:43.303Z,96495.56
2022-08-26T11:39:54.685Z,96497.22
2022-08-26T11:41:06.565Z,96488.91
2022-08-26T11:42:20.052Z,96490.44
2022-08-26T11:43:25.013Z,96495.59
2022-08-26T11:44:28.634Z,96490.38
2022-08-26T11:45:32.947Z,96496.19
2022-08-26T11:46:37.852Z,96490.13
2022-08-26T11:47:42.009Z,96498.22
2022-08-26T11:48:44.759Z,96489.78
2022-08-26T11:49:47.006Z,96494.13
2022-08-26T11:50:54.659Z,96492.97
2022-08-26T11:52:13.689Z,96495.00
2022-08-26T11:53:19.268Z,96492.75
2022-08-26T11:54:30.723Z,96495.91
2022-08-26T11:55:42.771Z,96489.72
2022-08-26T11:56:46.097Z,96494.41
2022-08-26T11:57:51.933Z,96494.84
2022-08-26T11:58:56.374Z,96488.22
2022-08-26T11:59:58.905Z,96481.78
2022-08-26T12:01:03.589Z,96485.34
2022-08-26T12:02:11.132Z,96489.88
2022-08-26T12:03:24.421Z,96487.88
2022-08-26T12:04:32.304Z,96487.59
2022-08-26T12:05:42.876Z,96479.69
2022-08-26T12:06:49.120Z,96490.91
2022-08-26T12:07:54.554Z,96485.53
2022-08-26T12:09:00.392Z,96484.81
2022-08-26T12:10:03.754Z,96480.56
2022-08-26T12:11:07.224Z,96479.69
2022-08-26T12:12:15.918Z,96478.97
2022-08-26T12:13:23.033Z,96481.41
2022-08-26T12:14:27.329Z,96488.44
2022-08-26T12:15:31.300Z,96484.81
2022-08-26T12:16:34.804Z,96480.19
2022-08-26T12:17:36.992Z,96482.41
2022-08-26T12:18:39.839Z,96483.75
2022-08-26T12:19:42.255Z,96478.34
2022-08-26T12:20:48.230Z,96480.28
2022-08-26T12:21:50.114Z,96472.03
2022-08-26T12:22:52.673Z,96483.03
2022-08-26T12:23:55.785Z,96478.81
2022-08-26T12:24:59.331Z,96481.25
2022-08-26T12:26:15.495Z,96471.38
2022-08-26T12:27:20.736Z,96478.28
2022-08-26T12:28:23.303Z,96473.06
2022-08-26T12:29:27.851Z,96470.97
2022-08-26T12:30:29.732Z,96462.03
2022-08-26T12:31:34.329Z,96459.63
2022-08-26T12:32:50.977Z,96463.75
2022-08-26T12:34:01.013Z,96462.25
2022-08-26T12:36:11.966Z,96464.72
2022-08-26T12:37:14.692Z,96461.13
2022-08-26T12:38:16.635Z,96461.66
2022-08-26T12:39:29.559Z,96463.22
2022-08-26T12:40:31.480Z,96458.25
2022-08-26T12:41:40.560Z,96458.75
2022-08-26T12:42:43.109Z,96451.94
2022-08-26T12:43:45.984Z,96453.66
2022-08-26T12:45:01.243Z,96449.03
2022-08-26T12:46:06.656Z,96451.28
2022-08-26T12:47:23.342Z,96454.84
2022-08-26T12:48:39.452Z,96453.16
2022-08-26T12:49:41.645Z,96449.38